createdAt,value
2019-04-21T00:02:31.995Z,22.93
2019-04-21T00:05:16.474Z,22.70
2019-04-21T00:07:49.024Z,23.80
2019-04-21T00:10:23.505Z,22.50
2019-04-21T00:12:45.918Z,23.27
2019-04-21T00:15:10.002Z,22.17
2019-04-21T00:17:31.618Z,21.53
2019-04-21T00:20:12.716Z,22.30
2019-04-21T00:22:44.027Z,21.67
2019-04-21T00:25:22.728Z,20.80
2019-04-21T00:27:50.097Z,22.80
2019-04-21T00:30:32.852Z,21.83
2019-04-21T00:32:50.311Z,21.60
2019-04-21T00:35:15.502Z,21.60
2019-04-21T00:38:00.882Z,22.20
2019-04-21T00:40:34.557Z,20.57
2019-04-21T00:42:59.986Z,21.83
2019-04-21T00:45:27.503Z,22.07
2019-04-21T00:48:03.869Z,22.07
2019-04-21T00:50:41.978Z,21.63
2019-04-21T00:53:23.060Z,21.40
2019-04-21T00:55:59.169Z,21.97
2019-04-21T00:58:30.089Z,21.10
2019-04-21T01:01:00.451Z,21.93
2019-04-21T01:03:26.740Z,22.57
2019-04-21T01:05:56.080Z,19.20
2019-04-21T01:08:28.249Z,18.57
2019-04-21T01:10:51.622Z,19.23
2019-04-21T01:13:32.104Z,19.60
2019-04-21T01:15:59.559Z,18.37
2019-04-21T01:18:28.426Z,19.63
2019-04-21T01:20:39.438Z,20.87
2019-04-21T01:23:08.597Z,19.30
2019-04-21T01:25:46.066Z,19.07
2019-04-21T01:28:27.165Z,20.47
2019-04-21T01:30:56.842Z,20.73
2019-04-21T01:33:33.582Z,19.03
2019-04-21T01:35:58.050Z,20.03
2019-04-21T01:38:34.193Z,19.80
2019-04-21T01:41:07.070Z,19.00
2019-04-21T01:43:33.852Z,18.00
2019-04-21T01:46:04.663Z,19.43
2019-04-21T01:48:30.667Z,18.87
2019-04-21T01:51:00.585Z,19.03
2019-04-21T01:54:11.190Z,18.83
2019-04-21T01:56:55.718Z,18.33
2019-04-21T01:59:25.694Z,18.73
2019-04-21T02:02:02.353Z,19.40
2019-04-21T02:04:36.568Z,17.73
2019-04-21T02:07:03.185Z,18.27
2019-04-21T02:09:38.373Z,17.50
2019-04-21T02:12:10.565Z,18.67
2019-04-21T02:14:46.086Z,17.50
2019-04-21T02:17:13.207Z,18.60
2019-04-21T02:19:39.042Z,18.30
2019-04-21T02:22:04.868Z,18.03
2019-04-21T02:24:49.907Z,17.40
2019-04-21T02:27:12.996Z,18.60
2019-04-21T02:29:49.020Z,18.40
2019-04-21T02:35:06.525Z,18.20
2019-04-21T02:37:42.534Z,18.43
2019-04-21T02:42:31.536Z,18.03
2019-04-21T02:44:59.833Z,18.37
2019-04-21T02:47:36.723Z,19.57
2019-04-21T02:52:35.426Z,17.53
2019-04-21T02:55:02.693Z,17.93
2019-04-21T02:57:34.729Z,16.67
2019-04-21T03:00:15.981Z,17.90
2019-04-21T03:02:55.122Z,16.57
2019-04-21T03:08:03.470Z,16.67
2019-04-21T03:10:53.240Z,16.07
2019-04-21T03:13:13.948Z,16.73
2019-04-21T03:15:59.144Z,17.07
2019-04-21T03:21:01.235Z,17.03
2019-04-21T03:28:14.093Z,17.43
2019-04-21T03:38:18.987Z,16.20
2019-04-21T03:40:39.977Z,15.77
2019-04-21T03:43:20.700Z,18.10
2019-04-21T03:45:49.613Z,18.77
2019-04-21T03:48:20.814Z,16.20
2019-04-21T03:50:49.169Z,15.67
2019-04-21T04:04:18.040Z,15.67
2019-04-21T04:07:05.651Z,15.93
2019-04-21T04:09:26.154Z,14.83
2019-04-21T04:11:51.076Z,14.17
2019-04-21T04:14:26.800Z,14.30
2019-04-21T04:19:26.384Z,15.23
2019-04-21T04:24:34.346Z,15.33
2019-04-21T04:26:57.008Z,15.13
2019-04-21T04:29:24.520Z,14.63
2019-04-21T04:32:14.618Z,17.00
2019-04-21T04:34:47.333Z,15.97
2019-04-21T04:37:05.437Z,15.63
2019-04-21T04:40:10.864Z,15.30
2019-04-21T04:42:40.742Z,16.43
2019-04-21T04:47:34.883Z,16.20
2019-04-21T04:50:05.313Z,17.50
2019-04-21T04:52:42.388Z,16.77
2019-04-21T04:55:06.837Z,17.47
2019-04-21T04:57:49.051Z,18.60
2019-04-21T05:00:18.186Z,16.43
2019-04-21T05:12:45.515Z,14.50
2019-04-21T05:15:11.538Z,15.93
2019-04-21T05:17:43.275Z,16.07
2019-04-21T05:20:15.798Z,16.13
2019-04-21T05:22:44.253Z,15.30
2019-04-21T05:25:05.516Z,15.67
2019-04-21T05:27:44.829Z,16.33
2019-04-21T05:30:30.699Z,16.10
2019-04-21T05:33:03.641Z,16.00
2019-04-21T05:36:04.791Z,17.43
2019-04-21T05:38:47.751Z,16.43
2019-04-21T05:41:13.098Z,16.50
2019-04-21T05:43:51.448Z,15.43
2019-04-21T05:46:25.229Z,15.80
2019-04-21T05:48:59.283Z,16.20
2019-04-21T05:51:27.155Z,15.13
2019-04-21T05:54:06.961Z,16.23
2019-04-21T05:56:30.586Z,18.10
2019-04-21T05:59:02.314Z,16.57
2019-04-21T06:02:11.410Z,15.57
2019-04-21T06:04:26.207Z,15.40
2019-04-21T06:06:48.059Z,15.37
2019-04-21T06:09:14.569Z,15.80
2019-04-21T06:11:47.879Z,15.53
2019-04-21T06:14:14.192Z,15.83
2019-04-21T06:16:48.233Z,16.17
2019-04-21T06:19:23.622Z,16.43
2019-04-21T06:21:45.277Z,15.23
2019-04-21T06:24:26.981Z,15.43
2019-04-21T06:26:59.252Z,15.30
2019-04-21T06:29:23.763Z,16.37
2019-04-21T06:34:27.775Z,16.70
2019-04-21T06:37:08.177Z,16.63
2019-04-21T06:42:02.545Z,17.83
2019-04-21T06:44:41.583Z,16.17
2019-04-21T06:47:15.586Z,17.17
2019-04-21T06:49:40.129Z,18.27
2019-04-21T06:52:30.552Z,17.07
2019-04-21T06:57:16.901Z,17.00
2019-04-21T06:59:40.562Z,15.97
2019-04-21T07:02:33.355Z,18.37
2019-04-21T07:04:50.231Z,24.37
2019-04-21T07:07:18.921Z,19.83
2019-04-21T07:09:51.182Z,20.17
2019-04-21T07:12:13.901Z,17.07
2019-04-21T07:14:47.883Z,16.90
2019-04-21T07:17:24.701Z,16.13
2019-04-21T07:19:55.369Z,16.40
2019-04-21T07:22:25.588Z,17.63
2019-04-21T07:24:48.209Z,16.80
2019-04-21T07:27:22.281Z,16.20
2019-04-21T07:29:58.593Z,16.10
2019-04-21T07:32:29.878Z,16.07
2019-04-21T07:35:00.126Z,15.90
2019-04-21T07:37:23.887Z,16.90
2019-04-21T07:39:54.840Z,15.10
2019-04-21T07:42:24.369Z,15.07
2019-04-21T07:45:04.584Z,15.03
2019-04-21T07:47:50.780Z,14.77
2019-04-21T07:50:35.018Z,14.67
2019-04-21T07:53:21.156Z,14.33
2019-04-21T07:58:14.975Z,12.67
2019-04-21T08:00:53.012Z,13.13
2019-04-21T08:03:25.039Z,13.07
2019-04-21T08:05:52.684Z,12.57
2019-04-21T08:08:17.915Z,12.90
2019-04-21T08:10:47.656Z,13.23
2019-04-21T08:13:28.963Z,12.78
2019-04-21T08:15:52.953Z,12.98
2019-04-21T08:18:28.350Z,12.65
2019-04-21T08:20:58.585Z,12.58
2019-04-21T08:23:25.410Z,11.70
2019-04-21T08:26:06.486Z,11.70
2019-04-21T08:28:35.088Z,11.48
2019-04-21T08:31:01.314Z,10.88
2019-04-21T08:38:35.849Z,12.07
2019-04-21T08:46:08.156Z,11.05
2019-04-21T08:48:35.167Z,11.53
2019-04-21T08:51:26.149Z,11.68
2019-04-21T08:53:41.135Z,10.98
2019-04-21T08:56:31.904Z,10.70
2019-04-21T08:59:28.462Z,10.50
2019-04-21T09:02:10.847Z,10.55
2019-04-21T09:04:35.231Z,11.05
2019-04-21T09:07:28.816Z,10.75
2019-04-21T09:09:45.722Z,11.22
2019-04-21T09:12:10.587Z,11.08
2019-04-21T09:14:41.472Z,11.28
2019-04-21T09:17:08.049Z,11.45
2019-04-21T09:19:51.045Z,10.88
2019-04-21T09:22:13.207Z,10.93
2019-04-21T09:24:46.985Z,10.68
2019-04-21T09:27:08.522Z,11.20
2019-04-21T09:29:35.443Z,10.70
2019-04-21T09:31:59.579Z,11.18
2019-04-21T09:34:33.181Z,10.80
2019-04-21T09:37:16.523Z,10.68
2019-04-21T09:39:33.215Z,11.05
2019-04-21T09:42:03.270Z,10.45
2019-04-21T09:44:37.169Z,10.72
2019-04-21T09:47:05.094Z,10.88
2019-04-21T09:49:35.613Z,10.70
2019-04-21T09:52:06.676Z,11.50
2019-04-21T09:54:45.833Z,10.23
2019-04-21T09:57:14.479Z,10.72
2019-04-21T09:59:40.669Z,11.35
2019-04-21T10:02:16.120Z,10.28
2019-04-21T10:04:40.063Z,10.65
2019-04-21T10:07:21.910Z,9.10
2019-04-21T10:09:40.136Z,9.38
2019-04-21T10:12:09.818Z,10.00
2019-04-21T10:14:39.095Z,9.08
2019-04-21T10:17:23.946Z,9.95
2019-04-21T10:19:53.202Z,9.40
2019-04-21T10:22:23.204Z,9.73
2019-04-21T10:24:52.506Z,9.93
2019-04-21T10:27:21.553Z,9.23
2019-04-21T10:29:52.185Z,9.33
2019-04-21T10:32:23.243Z,9.95
2019-04-21T10:34:52.861Z,10.10
2019-04-21T10:37:36.298Z,9.58
2019-04-21T10:39:53.822Z,9.90
2019-04-21T10:42:23.692Z,9.55
2019-04-21T10:44:52.845Z,9.50
2019-04-21T10:47:22.785Z,11.55
2019-04-21T10:49:52.844Z,10.55
2019-04-21T10:52:30.907Z,10.55
2019-04-21T10:55:17.199Z,10.58
2019-04-21T10:57:32.563Z,12.10
2019-04-21T11:00:01.762Z,12.37
2019-04-21T11:02:41.121Z,12.20
2019-04-21T11:05:10.264Z,12.70
2019-04-21T11:08:00.924Z,11.40
2019-04-21T11:10:20.430Z,11.20
2019-04-21T11:12:50.774Z,9.90
2019-04-21T11:15:21.088Z,12.75
2019-04-21T11:17:50.635Z,13.43
2019-04-21T11:20:20.183Z,12.65
2019-04-21T11:22:49.509Z,12.53
2019-04-21T11:25:19.782Z,10.75
2019-04-21T11:27:49.160Z,10.08
2019-04-21T11:30:18.235Z,9.65
2019-04-21T11:32:48.263Z,10.72
2019-04-21T11:35:19.213Z,10.05
2019-04-21T11:37:48.431Z,9.55
2019-04-21T11:40:19.802Z,9.45
2019-04-21T11:42:48.315Z,10.68
2019-04-21T11:45:32.867Z,7.58
2019-04-21T11:48:12.430Z,8.58
2019-04-21T11:50:41.629Z,7.78
2019-04-21T11:53:10.802Z,7.87
2019-04-21T11:55:43.602Z,9.85
2019-04-21T11:58:11.880Z,9.95
2019-04-21T12:00:42.160Z,9.63
2019-04-21T12:03:14.860Z,10.28
2019-04-21T12:05:43.399Z,9.20
2019-04-21T12:08:22.982Z,8.65
2019-04-21T12:10:43.317Z,9.65
2019-04-21T12:13:12.408Z,9.00
2019-04-21T12:15:42.975Z,9.98
2019-04-21T12:18:12.172Z,9.83
2019-04-21T12:20:41.256Z,9.83
2019-04-21T12:23:10.310Z,8.18
2019-04-21T12:25:43.079Z,7.20
2019-04-21T12:28:12.226Z,7.97
2019-04-21T12:30:42.035Z,7.87
2019-04-21T12:33:18.448Z,8.40
2019-04-21T12:35:48.194Z,8.93
2019-04-21T12:38:29.321Z,8.10
2019-04-21T12:40:48.576Z,7.97
2019-04-21T12:43:18.791Z,7.87
2019-04-21T12:45:47.932Z,8.10
2019-04-21T12:48:18.043Z,8.13
2019-04-21T12:50:47.934Z,8.53
2019-04-21T12:53:17.886Z,8.90
2019-04-21T12:55:48.489Z,8.93
2019-04-21T12:58:19.369Z,9.07
2019-04-21T13:00:49.604Z,7.67
2019-04-21T13:03:21.651Z,7.53
2019-04-21T13:05:49.765Z,7.10
2019-04-21T13:08:19.772Z,7.07
2019-04-21T13:10:48.890Z,6.47
2019-04-21T13:13:17.917Z,7.03
2019-04-21T13:15:47.348Z,6.70
2019-04-21T13:18:16.546Z,7.53
2019-04-21T13:20:46.412Z,6.97
2019-04-21T13:23:16.790Z,7.20
2019-04-21T13:25:46.003Z,7.20
2019-04-21T13:28:15.010Z,6.13
2019-04-21T13:30:44.409Z,6.90
2019-04-21T13:33:13.735Z,7.20
2019-04-21T13:35:42.798Z,7.57
2019-04-21T13:38:19.869Z,7.10
2019-04-21T13:41:21.464Z,7.20
2019-04-21T13:43:39.257Z,6.20
2019-04-21T13:46:09.883Z,7.00
2019-04-21T13:48:40.343Z,6.50
2019-04-21T13:51:11.085Z,6.77
2019-04-21T13:53:40.224Z,6.80
2019-04-21T13:56:10.661Z,8.83
2019-04-21T13:58:40.140Z,8.47
2019-04-21T14:01:09.682Z,8.77
2019-04-21T14:03:39.700Z,8.40
2019-04-21T14:06:08.809Z,8.30
2019-04-21T14:08:40.174Z,8.20
2019-04-21T14:11:09.295Z,8.23
2019-04-21T14:13:38.608Z,8.13
2019-04-21T14:16:08.102Z,8.57
2019-04-21T14:18:38.635Z,8.63
2019-04-21T14:21:07.634Z,8.53
2019-04-21T14:23:43.312Z,9.10
2019-04-21T14:26:08.685Z,8.17
2019-04-21T14:28:38.911Z,9.53
2019-04-21T14:31:08.278Z,9.13
2019-04-21T14:33:38.245Z,9.87
2019-04-21T14:36:08.608Z,9.47
2019-04-21T14:38:38.603Z,9.27
2019-04-21T14:41:08.260Z,9.40
2019-04-21T14:43:38.517Z,8.90
2019-04-21T14:46:21.644Z,9.37
2019-04-21T14:49:09.079Z,9.70
2019-04-21T14:51:45.394Z,10.50
2019-04-21T14:54:42.635Z,9.83
2019-04-21T14:57:11.804Z,10.20
2019-04-21T14:59:40.842Z,9.93
2019-04-21T15:02:09.913Z,9.50
2019-04-21T15:04:39.774Z,9.43
2019-04-21T15:07:09.669Z,10.67
2019-04-21T15:09:41.047Z,9.57
2019-04-21T15:12:10.064Z,10.23
2019-04-21T15:14:40.246Z,9.37
2019-04-21T15:17:09.405Z,9.90
2019-04-21T15:19:38.554Z,10.57
2019-04-21T15:22:08.230Z,9.40
2019-04-21T15:24:38.310Z,8.90
2019-04-21T15:27:07.481Z,10.20
2019-04-21T15:29:36.671Z,9.60
2019-04-21T15:32:06.358Z,8.87
2019-04-21T15:34:36.083Z,8.93
2019-04-21T15:37:06.163Z,9.37
2019-04-21T15:39:35.320Z,9.33
2019-04-21T15:42:04.388Z,8.53
2019-04-21T15:44:34.645Z,9.17
2019-04-21T15:47:04.072Z,8.80
2019-04-21T15:49:58.845Z,10.53
2019-04-21T15:52:22.257Z,8.00
2019-04-21T15:54:52.463Z,8.83
2019-04-21T15:57:33.786Z,8.00
2019-04-21T16:00:11.294Z,8.40
2019-04-21T16:02:42.506Z,9.23
2019-04-21T16:05:13.052Z,9.60
2019-04-21T16:07:42.390Z,8.90
2019-04-21T16:10:17.382Z,8.80
2019-04-21T16:12:43.663Z,8.93
2019-04-21T16:15:12.779Z,9.50
2019-04-21T16:17:41.829Z,8.40
2019-04-21T16:20:12.216Z,8.67
2019-04-21T16:22:44.514Z,8.67
2019-04-21T16:25:15.026Z,9.07
2019-04-21T16:27:45.415Z,8.67
2019-04-21T16:30:15.603Z,8.87
2019-04-21T16:32:46.012Z,8.83
2019-04-21T16:35:16.914Z,7.80
2019-04-21T16:37:47.598Z,8.70
2019-04-21T16:40:17.186Z,8.67
2019-04-21T16:42:47.924Z,8.47
2019-04-21T16:45:16.976Z,8.63
2019-04-21T16:47:48.904Z,8.30
2019-04-21T16:50:17.104Z,8.60
2019-04-21T16:53:08.301Z,8.30
2019-04-21T16:55:46.899Z,8.70
2019-04-21T16:58:32.627Z,9.00
2019-04-21T17:01:11.020Z,8.67
2019-04-21T17:03:36.821Z,8.87
2019-04-21T17:06:06.998Z,8.17
2019-04-21T17:08:36.872Z,8.03
2019-04-21T17:11:14.013Z,7.60
2019-04-21T17:13:38.296Z,7.47
2019-04-21T17:16:36.456Z,7.80
2019-04-21T17:18:50.864Z,8.33
2019-04-21T17:21:11.142Z,8.23
2019-04-21T17:23:42.151Z,9.30
2019-04-21T17:26:11.179Z,9.10
2019-04-21T17:28:40.715Z,9.30
2019-04-21T17:31:10.868Z,8.73
2019-04-21T17:33:41.390Z,9.10
2019-04-21T17:36:11.315Z,8.77
2019-04-21T17:38:41.821Z,7.60
2019-04-21T17:41:21.518Z,8.07
2019-04-21T17:43:41.952Z,12.00
2019-04-21T17:46:18.074Z,8.27
2019-04-21T17:48:42.981Z,11.40
2019-04-21T17:51:17.678Z,12.07
2019-04-21T17:54:17.552Z,23.17
2019-04-21T17:57:07.442Z,22.27
2019-04-21T17:59:45.139Z,8.87
2019-04-21T18:01:59.426Z,11.97
2019-04-21T18:04:32.192Z,9.30
2019-04-21T18:07:26.106Z,9.37
2019-04-21T18:10:00.923Z,8.90
2019-04-21T18:12:25.026Z,8.80
2019-04-21T18:14:52.949Z,8.20
2019-04-21T18:17:14.217Z,9.50
2019-04-21T18:19:47.342Z,9.03
2019-04-21T18:22:37.663Z,8.63
2019-04-21T18:25:09.895Z,9.63
2019-04-21T18:27:36.634Z,9.23
2019-04-21T18:30:28.387Z,9.13
2019-04-21T18:32:58.638Z,9.20
2019-04-21T18:35:36.513Z,8.33
2019-04-21T18:38:20.722Z,8.40
2019-04-21T18:40:47.437Z,8.53
2019-04-21T18:43:53.145Z,9.10
2019-04-21T18:46:25.891Z,8.60
2019-04-21T18:48:55.227Z,8.80
2019-04-21T18:51:34.711Z,8.67
2019-04-21T18:54:26.951Z,8.60
2019-04-21T18:56:33.819Z,9.10
2019-04-21T18:59:04.371Z,8.40
2019-04-21T19:01:36.520Z,9.03
2019-04-21T19:04:13.468Z,9.40
2019-04-21T19:06:51.433Z,8.70
2019-04-21T19:09:47.587Z,8.93
2019-04-21T19:12:06.046Z,8.33
2019-04-21T19:14:50.991Z,8.70
2019-04-21T19:17:39.583Z,8.77
2019-04-21T19:19:46.473Z,9.20
2019-04-21T19:22:09.057Z,9.00
2019-04-21T19:27:19.150Z,8.63
2019-04-21T19:29:53.955Z,9.17
2019-04-21T19:32:29.035Z,9.93
2019-04-21T19:34:32.563Z,9.10
2019-04-21T19:37:05.801Z,9.13
2019-04-21T19:39:43.419Z,9.97
2019-04-21T19:42:14.463Z,10.13
2019-04-21T19:44:47.229Z,10.40
2019-04-21T19:47:25.676Z,11.00
2019-04-21T19:49:55.157Z,10.97
2019-04-21T19:52:11.524Z,9.67
2019-04-21T19:54:39.780Z,9.93
2019-04-21T19:57:07.022Z,10.43
2019-04-21T19:59:42.655Z,9.90
2019-04-21T20:02:08.858Z,9.67
2019-04-21T20:04:43.879Z,10.20
2019-04-21T20:07:22.873Z,10.60
2019-04-21T20:10:02.112Z,9.60
2019-04-21T20:12:35.581Z,9.17
2019-04-21T20:15:06.388Z,10.00
2019-04-21T20:17:31.068Z,9.37
2019-04-21T20:19:44.542Z,9.20
2019-04-21T20:22:14.723Z,9.97
2019-04-21T20:24:50.035Z,10.10
2019-04-21T20:27:19.795Z,11.10
2019-04-21T20:30:01.996Z,11.60
2019-04-21T20:32:38.271Z,9.40
2019-04-21T20:35:06.749Z,10.70
2019-04-21T20:37:31.736Z,11.07
2019-04-21T20:39:57.791Z,9.30
2019-04-21T20:42:29.359Z,10.03
2019-04-21T20:45:24.961Z,10.23
2019-04-21T20:47:30.932Z,9.00
2019-04-21T20:50:11.405Z,9.73
2019-04-21T20:52:44.782Z,9.63
2019-04-21T20:55:06.826Z,9.87
2019-04-21T20:57:39.911Z,10.53
2019-04-21T21:00:15.422Z,9.63
2019-04-21T21:02:46.957Z,10.30
2019-04-21T21:05:14.189Z,9.87
2019-04-21T21:08:08.631Z,10.70
2019-04-21T21:10:17.511Z,10.93
2019-04-21T21:15:10.078Z,10.53
2019-04-21T21:20:24.865Z,11.03
2019-04-21T21:22:48.289Z,12.07
2019-04-21T21:25:32.183Z,11.43
2019-04-21T21:27:50.234Z,12.00
2019-04-21T21:30:24.615Z,12.00
2019-04-21T21:32:54.662Z,12.30
2019-04-21T21:35:21.423Z,12.47
2019-04-21T21:38:03.599Z,12.87
2019-04-21T21:40:27.118Z,14.23
2019-04-21T21:42:44.283Z,13.90
2019-04-21T21:45:17.860Z,15.50
2019-04-21T21:48:04.528Z,14.27
2019-04-21T21:50:23.927Z,13.40
2019-04-21T21:52:55.105Z,13.90
2019-04-21T21:55:15.999Z,12.80
2019-04-21T21:57:51.789Z,13.07
2019-04-21T22:00:17.508Z,12.30
2019-04-21T22:02:51.308Z,13.00
2019-04-21T22:05:23.896Z,12.57
2019-04-21T22:07:49.042Z,13.00
2019-04-21T22:10:18.327Z,13.00
2019-04-21T22:12:57.115Z,12.63
2019-04-21T22:15:24.347Z,12.90
2019-04-21T22:18:12.091Z,12.10
2019-04-21T22:20:40.118Z,12.53
2019-04-21T22:22:59.414Z,12.43
2019-04-21T22:25:26.640Z,12.60
2019-04-21T22:27:53.655Z,13.10
2019-04-21T22:30:29.934Z,13.00
2019-04-21T22:33:00.727Z,12.07
2019-04-21T22:35:33.494Z,12.13
2019-04-21T22:38:12.356Z,12.93
2019-04-21T22:40:44.069Z,12.60
2019-04-21T22:43:07.124Z,12.50
2019-04-21T22:45:29.313Z,13.00
2019-04-21T22:48:05.346Z,13.50
2019-04-21T22:50:30.821Z,12.53
2019-04-21T22:53:04.732Z,12.97
2019-04-21T22:55:34.732Z,13.00
2019-04-21T22:58:03.499Z,11.80
2019-04-21T23:00:40.052Z,11.20
2019-04-21T23:03:12.960Z,13.70
2019-04-21T23:05:38.229Z,12.93
2019-04-21T23:08:07.204Z,12.90
2019-04-21T23:10:37.148Z,13.50
2019-04-21T23:13:12.219Z,14.43
2019-04-21T23:15:42.360Z,14.00
2019-04-21T23:18:24.467Z,14.10
2019-04-21T23:20:54.050Z,14.33
2019-04-21T23:23:30.234Z,13.73
2019-04-21T23:25:55.653Z,13.57
2019-04-21T23:28:34.563Z,13.50
2019-04-21T23:31:00.436Z,12.90
2019-04-21T23:33:15.846Z,14.77
2019-04-21T23:35:46.080Z,13.67
2019-04-21T23:38:16.025Z,13.10
2019-04-21T23:40:50.523Z,12.97
2019-04-21T23:43:22.317Z,14.20
2019-04-21T23:45:48.214Z,13.33
2019-04-21T23:48:30.025Z,13.10
2019-04-21T23:50:54.734Z,13.70
2019-04-21T23:53:19.719Z,12.83
2019-04-21T23:55:49.498Z,14.83
2019-04-21T23:58:25.074Z,12.47
